sensor_id;sensor_type;location;lat;lon;timestamp;pressure;altitude;pressure_sealevel;temperature;humidity
63552;BME280;49698;48.072;7.800;2024-01-30T00:02:18;100755.91;;;1.18;100.00
63552;BME280;49698;48.072;7.800;2024-01-30T00:04:46;100757.94;;;1.16;100.00
63552;BME280;49698;48.072;7.800;2024-01-30T00:07:14;100753.03;;;1.13;100.00
63552;BME280;49698;48.072;7.800;2024-01-30T00:09:42;100757.66;;;1.11;100.00
63552;BME280;49698;48.072;7.800;2024-01-30T00:12:09;100758.88;;;1.09;100.00
63552;BME280;49698;48.072;7.800;2024-01-30T00:14:40;100759.06;;;1.07;100.00
63552;BME280;49698;48.072;7.800;2024-01-30T00:17:09;100755.78;;;1.05;100.00
63552;BME280;49698;48.072;7.800;2024-01-30T00:19:37;100757.78;;;1.03;100.00
63552;BME280;49698;48.072;7.800;2024-01-30T00:22:05;100756.16;;;1.02;100.00
63552;BME280;49698;48.072;7.800;2024-01-30T00:24:34;100752.88;;;1.00;100.00
63552;BME280;49698;48.072;7.800;2024-01-30T00:27:02;100754.88;;;0.98;100.00
63552;BME280;49698;48.072;7.800;2024-01-30T00:29:30;100762.19;;;0.96;100.00
63552;BME280;49698;48.072;7.800;2024-01-30T00:32:01;100759.72;;;0.94;100.00
63552;BME280;49698;48.072;7.800;2024-01-30T00:34:29;100767.22;;;0.91;100.00
63552;BME280;49698;48.072;7.800;2024-01-30T00:36:57;100763.13;;;0.88;100.00
63552;BME280;49698;48.072;7.800;2024-01-30T00:39:25;100764.94;;;0.88;100.00
63552;BME280;49698;48.072;7.800;2024-01-30T00:41:53;100762.50;;;0.86;100.00
63552;BME280;49698;48.072;7.800;2024-01-30T00:44:21;100769.78;;;0.84;100.00
63552;BME280;49698;48.072;7.800;2024-01-30T00:46:49;100768.34;;;0.82;100.00
63552;BME280;49698;48.072;7.800;2024-01-30T00:49:18;100769.72;;;0.78;100.00
63552;BME280;49698;48.072;7.800;2024-01-30T00:51:46;100755.84;;;0.76;100.00
63552;BME280;49698;48.072;7.800;2024-01-30T00:54:16;100754.22;;;0.75;100.00
63552;BME280;49698;48.072;7.800;2024-01-30T00:56:44;100756.84;;;0.75;100.00
63552;BME280;49698;48.072;7.800;2024-01-30T00:59:12;100763.13;;;0.73;100.00
63552;BME280;49698;48.072;7.800;2024-01-30T01:01:40;100759.88;;;0.71;100.00
63552;BME280;49698;48.072;7.800;2024-01-30T01:04:08;100754.94;;;0.68;100.00
63552;BME280;49698;48.072;7.800;2024-01-30T01:06:37;100771.19;;;0.65;100.00
63552;BME280;49698;48.072;7.800;2024-01-30T01:09:05;100757.31;;;0.63;100.00
63552;BME280;49698;48.072;7.800;2024-01-30T01:11:33;100764.63;;;0.61;100.00
63552;BME280;49698;48.072;7.800;2024-01-30T01:14:01;100760.34;;;0.60;100.00
63552;BME280;49698;48.072;7.800;2024-01-30T01:16:29;100767.47;;;0.60;100.00
63552;BME280;49698;48.072;7.800;2024-01-30T01:18:57;100769.28;;;0.59;100.00
63552;BME280;49698;48.072;7.800;2024-01-30T01:21:26;100769.44;;;0.58;100.00
63552;BME280;49698;48.072;7.800;2024-01-30T01:23:56;100767.00;;;0.56;100.00
63552;BME280;49698;48.072;7.800;2024-01-30T01:26:24;100760.88;;;0.56;100.00
63552;BME280;49698;48.072;7.800;2024-01-30T01:28:52;100759.06;;;0.56;100.00
63552;BME280;49698;48.072;7.800;2024-01-30T01:31:20;100765.38;;;0.55;100.00
63552;BME280;49698;48.072;7.800;2024-01-30T01:33:51;100761.72;;;0.56;100.00
63552;BME280;49698;48.072;7.800;2024-01-30T01:36:19;100758.06;;;0.57;100.00
63552;BME280;49698;48.072;7.800;2024-01-30T01:38:47;100762.34;;;0.58;100.00
63552;BME280;49698;48.072;7.800;2024-01-30T01:41:16;100758.88;;;0.58;100.00
63552;BME280;49698;48.072;7.800;2024-01-30T01:43:44;100753.56;;;0.58;100.00
63552;BME280;49698;48.072;7.800;2024-01-30T01:46:12;100749.13;;;0.58;100.00
63552;BME280;49698;48.072;7.800;2024-01-30T01:48:40;100752.75;;;0.57;100.00
63552;BME280;49698;48.072;7.800;2024-01-30T01:51:09;100752.13;;;0.55;100.00
63552;BME280;49698;48.072;7.800;2024-01-30T01:53:37;100741.34;;;0.57;100.00
63552;BME280;49698;48.072;7.800;2024-01-30T01:56:05;100748.47;;;0.56;100.00
63552;BME280;49698;48.072;7.800;2024-01-30T01:58:35;100746.47;;;0.58;100.00
63552;BME280;49698;48.072;7.800;2024-01-30T02:01:03;100742.81;;;0.59;100.00
63552;BME280;49698;48.072;7.800;2024-01-30T02:03:32;100747.47;;;0.57;100.00
63552;BME280;49698;48.072;7.800;2024-01-30T02:06:01;100753.41;;;0.59;100.00
63552;BME280;49698;48.072;7.800;2024-01-30T02:08:30;100747.31;;;0.59;100.00
63552;BME280;49698;48.072;7.800;2024-01-30T02:10:58;100748.94;;;0.60;100.00
63552;BME280;49698;48.072;7.800;2024-01-30T02:13:26;100745.63;;;0.58;100.00
63552;BME280;49698;48.072;7.800;2024-01-30T02:15:55;100749.50;;;0.55;100.00
63552;BME280;49698;48.072;7.800;2024-01-30T02:18:23;100735.00;;;0.51;100.00
63552;BME280;49698;48.072;7.800;2024-01-30T02:21:12;100739.63;;;0.49;100.00
63552;BME280;49698;48.072;7.800;2024-01-30T02:23:40;100741.47;;;0.48;100.00
63552;BME280;49698;48.072;7.800;2024-01-30T02:26:09;100749.41;;;0.48;100.00
63552;BME280;49698;48.072;7.800;2024-01-30T02:28:37;100746.94;;;0.47;100.00
63552;BME280;49698;48.072;7.800;2024-01-30T02:31:06;100748.59;;;0.48;100.00
63552;BME280;49698;48.072;7.800;2024-01-30T02:33:33;100742.47;;;0.47;100.00
63552;BME280;49698;48.072;7.800;2024-01-30T02:36:01;100736.38;;;0.47;100.00
63552;BME280;49698;48.072;7.800;2024-01-30T02:38:31;100736.38;;;0.47;100.00
63552;BME280;49698;48.072;7.800;2024-01-30T02:40:58;100733.06;;;0.45;100.00
63552;BME280;49698;48.072;7.800;2024-01-30T02:43:26;100733.25;;;0.43;100.00
63552;BME280;49698;48.072;7.800;2024-01-30T02:45:54;100739.72;;;0.41;100.00
63552;BME280;49698;48.072;7.800;2024-01-30T02:48:22;100733.44;;;0.42;100.00
63552;BME280;49698;48.072;7.800;2024-01-30T02:50:50;100735.09;;;0.43;100.00
63552;BME280;49698;48.072;7.800;2024-01-30T02:53:18;100735.09;;;0.43;100.00
63552;BME280;49698;48.072;7.800;2024-01-30T02:55:47;100736.72;;;0.44;100.00
63552;BME280;49698;48.072;7.800;2024-01-30T02:58:15;100737.75;;;0.43;100.00
63552;BME280;49698;48.072;7.800;2024-01-30T03:00:43;100738.72;;;0.42;100.00
63552;BME280;49698;48.072;7.800;2024-01-30T03:03:10;100737.91;;;0.41;100.00
63552;BME280;49698;48.072;7.800;2024-01-30T03:05:38;100751.31;;;0.40;100.00
63552;BME280;49698;48.072;7.800;2024-01-30T03:08:06;100735.81;;;0.37;100.00
63552;BME280;49698;48.072;7.800;2024-01-30T03:10:34;100735.81;;;0.37;100.00
63552;BME280;49698;48.072;7.800;2024-01-30T03:13:04;100739.47;;;0.36;100.00
63552;BME280;49698;48.072;7.800;2024-01-30T03:15:32;100744.75;;;0.36;100.00
63552;BME280;49698;48.072;7.800;2024-01-30T03:18:00;100734.34;;;0.34;100.00
63552;BME280;49698;48.072;7.800;2024-01-30T03:20:27;100740.66;;;0.33;100.00
63552;BME280;49698;48.072;7.800;2024-01-30T03:22:55;100746.94;;;0.32;100.00
63552;BME280;49698;48.072;7.800;2024-01-30T03:25:24;100741.81;;;0.31;100.00
63552;BME280;49698;48.072;7.800;2024-01-30T03:27:52;100742.22;;;0.28;100.00
63552;BME280;49698;48.072;7.800;2024-01-30T03:30:21;100743.84;;;0.29;100.00
63552;BME280;49698;48.072;7.800;2024-01-30T03:32:49;100746.66;;;0.27;100.00
63552;BME280;49698;48.072;7.800;2024-01-30T03:35:18;100747.50;;;0.28;100.00
63552;BME280;49698;48.072;7.800;2024-01-30T03:37:46;100747.50;;;0.28;100.00
63552;BME280;49698;48.072;7.800;2024-01-30T03:40:14;100749.28;;;0.27;100.00
63552;BME280;49698;48.072;7.800;2024-01-30T03:42:42;100743.75;;;0.22;100.00
63552;BME280;49698;48.072;7.800;2024-01-30T03:45:10;100746.94;;;0.17;100.00
63552;BME280;49698;48.072;7.800;2024-01-30T03:47:39;100741.38;;;0.12;100.00
63552;BME280;49698;48.072;7.800;2024-01-30T03:50:07;100754.50;;;0.06;100.00
63552;BME280;49698;48.072;7.800;2024-01-30T03:52:35;100748.84;;;-0.06;100.00
63552;BME280;49698;48.072;7.800;2024-01-30T03:55:03;100749.25;;;-0.17;100.00
63552;BME280;49698;48.072;7.800;2024-01-30T03:57:31;100747.16;;;-0.22;100.00
63552;BME280;49698;48.072;7.800;2024-01-30T03:59:59;100751.16;;;-0.26;100.00
63552;BME280;49698;48.072;7.800;2024-01-30T04:02:39;100753.97;;;-0.28;100.00
63552;BME280;49698;48.072;7.800;2024-01-30T04:05:07;100754.81;;;-0.27;100.00
63552;BME280;49698;48.072;7.800;2024-01-30T04:07:35;100750.34;;;-0.27;100.00
63552;BME280;49698;48.072;7.800;2024-01-30T04:10:03;100749.16;;;-0.24;100.00
63552;BME280;49698;48.072;7.800;2024-01-30T04:12:32;100749.97;;;-0.23;100.00
63552;BME280;49698;48.072;7.800;2024-01-30T04:15:00;100762.84;;;-0.20;100.00
63552;BME280;49698;48.072;7.800;2024-01-30T04:17:29;100764.31;;;-0.18;100.00
63552;BME280;49698;48.072;7.800;2024-01-30T04:19:58;100777.31;;;-0.16;100.00
63552;BME280;49698;48.072;7.800;2024-01-30T04:22:26;100777.69;;;-0.19;100.00
63552;BME280;49698;48.072;7.800;2024-01-30T04:24:54;100778.69;;;-0.20;100.00
63552;BME280;49698;48.072;7.800;2024-01-30T04:27:22;100768.31;;;-0.22;100.00
63552;BME280;49698;48.072;7.800;2024-01-30T04:29:51;100771.94;;;-0.23;100.00
63552;BME280;49698;48.072;7.800;2024-01-30T04:32:19;100771.75;;;-0.21;100.00
63552;BME280;49698;48.072;7.800;2024-01-30T04:34:46;100767.09;;;-0.19;100.00
63552;BME280;49698;48.072;7.800;2024-01-30T04:37:16;100774.88;;;-0.18;100.00
63552;BME280;49698;48.072;7.800;2024-01-30T04:39:44;100772.84;;;-0.16;100.00
63552;BME280;49698;48.072;7.800;2024-01-30T04:42:12;100776.97;;;-0.13;100.00
63552;BME280;49698;48.072;7.800;2024-01-30T04:44:40;100785.56;;;-0.11;100.00
63552;BME280;49698;48.072;7.800;2024-01-30T04:47:08;100781.56;;;-0.07;100.00
63552;BME280;49698;48.072;7.800;2024-01-30T04:49:38;100777.91;;;-0.06;100.00
63552;BME280;49698;48.072;7.800;2024-01-30T04:52:07;100782.84;;;-0.03;100.00
63552;BME280;49698;48.072;7.800;2024-01-30T04:54:36;100779.19;;;-0.02;100.00
63552;BME280;49698;48.072;7.800;2024-01-30T04:57:04;100779.84;;;0.00;100.00
63552;BME280;49698;48.072;7.800;2024-01-30T04:59:36;100790.22;;;0.02;100.00
63552;BME280;49698;48.072;7.800;2024-01-30T05:02:04;100787.38;;;0.03;100.00
63552;BME280;49698;48.072;7.800;2024-01-30T05:04:31;100787.22;;;0.05;100.00
63552;BME280;49698;48.072;7.800;2024-01-30T05:06:59;100787.03;;;0.06;100.00
63552;BME280;49698;48.072;7.800;2024-01-30T05:09:27;100783.38;;;0.07;100.00
63552;BME280;49698;48.072;7.800;2024-01-30T05:11:57;100790.34;;;0.08;100.00
63552;BME280;49698;48.072;7.800;2024-01-30T05:14:25;100777.94;;;0.09;100.00
63552;BME280;49698;48.072;7.800;2024-01-30T05:16:53;100787.31;;;0.11;100.00
63552;BME280;49698;48.072;7.800;2024-01-30T05:19:21;100785.50;;;0.12;100.00
63552;BME280;49698;48.072;7.800;2024-01-30T05:21:50;100785.31;;;0.13;100.00
63552;BME280;49698;48.072;7.800;2024-01-30T05:24:18;100780.84;;;0.14;100.00
63552;BME280;49698;48.072;7.800;2024-01-30T05:26:46;100785.94;;;0.15;100.00
63552;BME280;49698;48.072;7.800;2024-01-30T05:29:16;100787.63;;;0.16;100.00
63552;BME280;49698;48.072;7.800;2024-01-30T05:31:44;100784.63;;;0.19;100.00
63552;BME280;49698;48.072;7.800;2024-01-30T05:34:12;100781.97;;;0.19;100.00
63552;BME280;49698;48.072;7.800;2024-01-30T05:36:40;100779.94;;;0.21;100.00
63552;BME280;49698;48.072;7.800;2024-01-30T05:39:07;100786.88;;;0.22;100.00
63552;BME280;49698;48.072;7.800;2024-01-30T05:41:35;100789.34;;;0.24;100.00
63552;BME280;49698;48.072;7.800;2024-01-30T05:44:03;100796.09;;;0.27;100.00
63552;BME280;49698;48.072;7.800;2024-01-30T05:46:33;100795.91;;;0.28;100.00
63552;BME280;49698;48.072;7.800;2024-01-30T05:49:00;100785.16;;;0.30;100.00
63552;BME280;49698;48.072;7.800;2024-01-30T05:51:31;100791.09;;;0.32;100.00
63552;BME280;49698;48.072;7.800;2024-01-30T05:53:59;100787.44;;;0.33;100.00
63552;BME280;49698;48.072;7.800;2024-01-30T05:56:30;100786.44;;;0.34;100.00
63552;BME280;49698;48.072;7.800;2024-01-30T05:58:58;100795.00;;;0.36;100.00
63552;BME280;49698;48.072;7.800;2024-01-30T06:01:25;100795.63;;;0.38;100.00
63552;BME280;49698;48.072;7.800;2024-01-30T06:03:55;100783.44;;;0.37;100.00
63552;BME280;49698;48.072;7.800;2024-01-30T06:06:23;100789.72;;;0.36;100.00
63552;BME280;49698;48.072;7.800;2024-01-30T06:08:50;100792.53;;;0.34;100.00
63552;BME280;49698;48.072;7.800;2024-01-30T06:11:18;100783.16;;;0.32;100.00
63552;BME280;49698;48.072;7.800;2024-01-30T06:13:46;100790.44;;;0.30;100.00
63552;BME280;49698;48.072;7.800;2024-01-30T06:16:14;100798.56;;;0.28;100.00
63552;BME280;49698;48.072;7.800;2024-01-30T06:18:42;100794.44;;;0.26;100.00
63552;BME280;49698;48.072;7.800;2024-01-30T06:21:11;100800.75;;;0.24;100.00
63552;BME280;49698;48.072;7.800;2024-01-30T06:23:39;100799.13;;;0.23;100.00
63552;BME280;49698;48.072;7.800;2024-01-30T06:26:09;100796.28;;;0.25;100.00
63552;BME280;49698;48.072;7.800;2024-01-30T06:28:37;100793.44;;;0.27;100.00
63552;BME280;49698;48.072;7.800;2024-01-30T06:31:05;100797.75;;;0.28;100.00
63552;BME280;49698;48.072;7.800;2024-01-30T06:33:35;100797.56;;;0.29;100.00
63552;BME280;49698;48.072;7.800;2024-01-30T06:36:04;100793.91;;;0.30;100.00
63552;BME280;49698;48.072;7.800;2024-01-30T06:38:33;100798.38;;;0.30;100.00
63552;BME280;49698;48.072;7.800;2024-01-30T06:41:01;100792.06;;;0.31;100.00
63552;BME280;49698;48.072;7.800;2024-01-30T06:43:29;100803.66;;;0.30;100.00
63552;BME280;49698;48.072;7.800;2024-01-30T06:45:57;100805.69;;;0.28;100.00
63552;BME280;49698;48.072;7.800;2024-01-30T06:48:24;100806.03;;;0.24;100.00
63552;BME280;49698;48.072;7.800;2024-01-30T06:50:53;100802.72;;;0.22;100.00
63552;BME280;49698;48.072;7.800;2024-01-30T06:53:21;100796.63;;;0.22;100.00
63552;BME280;49698;48.072;7.800;2024-01-30T06:55:51;100807.22;;;0.22;100.00
63552;BME280;49698;48.072;7.800;2024-01-30T06:58:19;100794.81;;;0.22;100.00
63552;BME280;49698;48.072;7.800;2024-01-30T07:00:47;100800.75;;;0.24;100.00
63552;BME280;49698;48.072;7.800;2024-01-30T07:03:15;100810.97;;;0.28;100.00
63552;BME280;49698;48.072;7.800;2024-01-30T07:05:43;100804.47;;;0.30;100.00
63552;BME280;49698;48.072;7.800;2024-01-30T07:08:11;100804.13;;;0.33;100.00
63552;BME280;49698;48.072;7.800;2024-01-30T07:10:39;100808.88;;;0.38;100.00
63552;BME280;49698;48.072;7.800;2024-01-30T07:13:08;100812.97;;;0.40;100.00
63552;BME280;49698;48.072;7.800;2024-01-30T07:15:37;100808.78;;;0.46;100.00
63552;BME280;49698;48.072;7.800;2024-01-30T07:18:05;100820.72;;;0.57;100.00
63552;BME280;49698;48.072;7.800;2024-01-30T07:20:33;100817.19;;;0.64;100.00
63552;BME280;49698;48.072;7.800;2024-01-30T07:23:02;100814.16;;;0.67;100.00
63552;BME280;49698;48.072;7.800;2024-01-30T07:25:29;100812.53;;;0.66;100.00
63552;BME280;49698;48.072;7.800;2024-01-30T07:27:57;100817.00;;;0.66;100.00
63552;BME280;49698;48.072;7.800;2024-01-30T07:30:27;100818.81;;;0.65;100.00
63552;BME280;49698;48.072;7.800;2024-01-30T07:32:54;100817.19;;;0.64;100.00
63552;BME280;49698;48.072;7.800;2024-01-30T07:35:23;100815.34;;;0.65;100.00
63552;BME280;49698;48.072;7.800;2024-01-30T07:37:50;100813.81;;;0.70;100.00
63552;BME280;49698;48.072;7.800;2024-01-30T07:40:18;100810.50;;;0.83;100.00
63552;BME280;49698;48.072;7.800;2024-01-30T07:42:47;100819.41;;;1.12;100.00
63552;BME280;49698;48.072;7.800;2024-01-30T07:45:16;100817.13;;;1.66;100.00
63552;BME280;49698;48.072;7.800;2024-01-30T07:47:49;100809.47;;;2.28;100.00
63552;BME280;49698;48.072;7.800;2024-01-30T07:50:17;100819.63;;;2.87;100.00
63552;BME280;49698;48.072;7.800;2024-01-30T07:52:45;100827.78;;;3.47;100.00
63552;BME280;49698;48.072;7.800;2024-01-30T07:55:15;100824.19;;;4.01;100.00
63552;BME280;49698;48.072;7.800;2024-01-30T07:57:43;100824.97;;;4.41;99.80
63552;BME280;49698;48.072;7.800;2024-01-30T08:00:11;100823.06;;;4.75;98.39
63552;BME280;49698;48.072;7.800;2024-01-30T08:02:39;100830.53;;;5.04;96.88
63552;BME280;49698;48.072;7.800;2024-01-30T08:05:08;100830.22;;;5.32;95.49
63552;BME280;49698;48.072;7.800;2024-01-30T08:07:38;100835.44;;;5.52;93.92
63552;BME280;49698;48.072;7.800;2024-01-30T08:10:06;100832.06;;;5.63;92.91
63552;BME280;49698;48.072;7.800;2024-01-30T08:12:34;100827.94;;;5.68;91.85
63552;BME280;49698;48.072;7.800;2024-01-30T08:15:02;100827.53;;;5.71;92.42
63552;BME280;49698;48.072;7.800;2024-01-30T08:17:30;100835.28;;;5.72;92.14
63552;BME280;49698;48.072;7.800;2024-01-30T08:19:59;100827.53;;;5.71;91.99
63552;BME280;49698;48.072;7.800;2024-01-30T08:22:28;100823.00;;;5.71;91.75
63552;BME280;49698;48.072;7.800;2024-01-30T08:24:56;100825.06;;;5.69;91.59
63552;BME280;49698;48.072;7.800;2024-01-30T08:27:24;100819.28;;;5.72;91.89
63552;BME280;49698;48.072;7.800;2024-01-30T08:29:51;100817.13;;;5.87;91.25
63552;BME280;49698;48.072;7.800;2024-01-30T08:32:19;100820.72;;;6.06;90.47
63552;BME280;49698;48.072;7.800;2024-01-30T08:34:47;100820.09;;;6.29;88.82
63552;BME280;49698;48.072;7.800;2024-01-30T08:37:15;100817.19;;;6.56;87.73
63552;BME280;49698;48.072;7.800;2024-01-30T08:39:44;100820.38;;;6.83;85.75
63552;BME280;49698;48.072;7.800;2024-01-30T08:42:12;100822.56;;;7.04;84.58
63552;BME280;49698;48.072;7.800;2024-01-30T08:44:40;100811.88;;;7.23;83.71
63552;BME280;49698;48.072;7.800;2024-01-30T08:47:08;100813.91;;;7.39;83.23
63552;BME280;49698;48.072;7.800;2024-01-30T08:49:36;100819.91;;;7.53;82.11
63552;BME280;49698;48.072;7.800;2024-01-30T08:52:04;100825.88;;;7.67;81.31
63552;BME280;49698;48.072;7.800;2024-01-30T08:54:33;100819.16;;;7.76;80.87
63552;BME280;49698;48.072;7.800;2024-01-30T08:57:03;100827.66;;;7.84;80.30
63552;BME280;49698;48.072;7.800;2024-01-30T08:59:31;100828.72;;;7.95;79.52
63552;BME280;49698;48.072;7.800;2024-01-30T09:02:00;100819.44;;;8.09;78.08
63552;BME280;49698;48.072;7.800;2024-01-30T09:04:29;100824.22;;;8.19;77.69
63552;BME280;49698;48.072;7.800;2024-01-30T09:06:57;100820.38;;;8.27;76.96
63552;BME280;49698;48.072;7.800;2024-01-30T09:09:24;100821.31;;;8.32;77.18
63552;BME280;49698;48.072;7.800;2024-01-30T09:11:52;100817.72;;;8.39;76.46
63552;BME280;49698;48.072;7.800;2024-01-30T09:14:22;100822.16;;;8.45;76.29
63552;BME280;49698;48.072;7.800;2024-01-30T09:16:50;100834.41;;;8.52;75.29
63552;BME280;49698;48.072;7.800;2024-01-30T09:19:17;100830.31;;;8.62;74.56
63552;BME280;49698;48.072;7.800;2024-01-30T09:21:45;100833.22;;;8.72;73.90
63552;BME280;49698;48.072;7.800;2024-01-30T09:24:13;100829.34;;;8.79;73.24
63552;BME280;49698;48.072;7.800;2024-01-30T09:26:41;100837.84;;;8.88;72.65
63552;BME280;49698;48.072;7.800;2024-01-30T09:29:09;100847.94;;;8.98;71.57
63552;BME280;49698;48.072;7.800;2024-01-30T09:31:38;100846.56;;;9.07;71.43
63552;BME280;49698;48.072;7.800;2024-01-30T09:34:06;100853.41;;;9.15;70.75
63552;BME280;49698;48.072;7.800;2024-01-30T09:36:34;100854.91;;;9.22;70.34
63552;BME280;49698;48.072;7.800;2024-01-30T09:39:02;100861.44;;;9.26;70.33
63552;BME280;49698;48.072;7.800;2024-01-30T09:41:31;100867.59;;;9.27;70.07
63552;BME280;49698;48.072;7.800;2024-01-30T09:43:59;100870.38;;;9.32;70.00
63552;BME280;49698;48.072;7.800;2024-01-30T09:46:29;100873.41;;;9.36;69.74
63552;BME280;49698;48.072;7.800;2024-01-30T09:49:01;100868.13;;;9.41;69.89
63552;BME280;49698;48.072;7.800;2024-01-30T09:51:29;100869.31;;;9.45;68.83
63552;BME280;49698;48.072;7.800;2024-01-30T09:53:58;100873.94;;;9.49;68.44
63552;BME280;49698;48.072;7.800;2024-01-30T09:56:26;100879.88;;;9.51;68.02
63552;BME280;49698;48.072;7.800;2024-01-30T09:58:54;100867.84;;;9.54;68.61
63552;BME280;49698;48.072;7.800;2024-01-30T10:01:22;100873.56;;;9.58;67.25
63552;BME280;49698;48.072;7.800;2024-01-30T10:03:50;100872.84;;;9.62;66.94
63552;BME280;49698;48.072;7.800;2024-01-30T10:06:21;100866.75;;;9.67;67.03
63552;BME280;49698;48.072;7.800;2024-01-30T10:08:50;100861.50;;;9.72;66.12
63552;BME280;49698;48.072;7.800;2024-01-30T10:11:18;100858.06;;;9.76;66.33
63552;BME280;49698;48.072;7.800;2024-01-30T10:13:46;100864.34;;;9.82;66.28
63552;BME280;49698;48.072;7.800;2024-01-30T10:16:14;100859.03;;;9.87;65.69
63552;BME280;49698;48.072;7.800;2024-01-30T10:18:43;100861.56;;;9.94;65.41
63552;BME280;49698;48.072;7.800;2024-01-30T10:21:11;100857.94;;;10.00;65.08
63552;BME280;49698;48.072;7.800;2024-01-30T10:23:43;100856.94;;;10.06;64.36
63552;BME280;49698;48.072;7.800;2024-01-30T10:26:11;100856.25;;;10.11;64.24
63552;BME280;49698;48.072;7.800;2024-01-30T10:28:39;100855.72;;;10.14;64.56
63552;BME280;49698;48.072;7.800;2024-01-30T10:31:07;100846.13;;;10.18;64.00
63552;BME280;49698;48.072;7.800;2024-01-30T10:33:35;100854.28;;;10.23;64.34
63552;BME280;49698;48.072;7.800;2024-01-30T10:36:04;100853.31;;;10.29;63.99
63552;BME280;49698;48.072;7.800;2024-01-30T10:38:32;100851.53;;;10.35;62.97
63552;BME280;49698;48.072;7.800;2024-01-30T10:41:01;100845.97;;;10.41;62.59
63552;BME280;49698;48.072;7.800;2024-01-30T10:43:31;100848.75;;;10.46;62.44
63552;BME280;49698;48.072;7.800;2024-01-30T10:46:02;100850.97;;;10.49;62.38
63552;BME280;49698;48.072;7.800;2024-01-30T10:48:36;100856.41;;;10.55;62.71
63552;BME280;49698;48.072;7.800;2024-01-30T10:51:06;100847.31;;;10.61;62.14
63552;BME280;49698;48.072;7.800;2024-01-30T10:53:35;100845.28;;;10.68;61.93
63552;BME280;49698;48.072;7.800;2024-01-30T10:56:05;100851.34;;;10.80;61.82
63552;BME280;49698;48.072;7.800;2024-01-30T10:58:34;100844.56;;;10.94;61.23
63552;BME280;49698;48.072;7.800;2024-01-30T11:01:02;100841.50;;;11.08;60.39
63552;BME280;49698;48.072;7.800;2024-01-30T11:03:31;100841.06;;;11.16;59.82
63552;BME280;49698;48.072;7.800;2024-01-30T11:06:00;100848.69;;;11.24;59.37
63552;BME280;49698;48.072;7.800;2024-01-30T11:08:31;100833.66;;;11.28;58.90
63552;BME280;49698;48.072;7.800;2024-01-30T11:10:59;100835.09;;;11.36;58.54
63552;BME280;49698;48.072;7.800;2024-01-30T11:13:28;100832.75;;;11.44;58.42
63552;BME280;49698;48.072;7.800;2024-01-30T11:15:59;100836.06;;;11.51;58.68
63552;BME280;49698;48.072;7.800;2024-01-30T11:18:28;100838.25;;;11.55;58.31
63552;BME280;49698;48.072;7.800;2024-01-30T11:20:57;100848.53;;;11.58;58.40
63552;BME280;49698;48.072;7.800;2024-01-30T11:23:25;100845.56;;;11.59;58.52
63552;BME280;49698;48.072;7.800;2024-01-30T11:25:53;100841.56;;;11.62;58.00
63552;BME280;49698;48.072;7.800;2024-01-30T11:28:21;100840.50;;;11.63;58.32
63552;BME280;49698;48.072;7.800;2024-01-30T11:30:51;100834.06;;;11.69;58.43
63552;BME280;49698;48.072;7.800;2024-01-30T11:33:27;100837.06;;;11.72;58.43
63552;BME280;49698;48.072;7.800;2024-01-30T11:35:58;100831.69;;;11.72;58.45
63552;BME280;49698;48.072;7.800;2024-01-30T11:38:27;100825.25;;;11.73;58.55
63552;BME280;49698;48.072;7.800;2024-01-30T11:40:55;100829.81;;;11.73;58.06
63552;BME280;49698;48.072;7.800;2024-01-30T11:43:24;100826.06;;;11.74;58.35
63552;BME280;49698;48.072;7.800;2024-01-30T11:45:53;100826.59;;;11.76;58.44
63552;BME280;49698;48.072;7.800;2024-01-30T11:48:21;100827.72;;;11.80;58.45
63552;BME280;49698;48.072;7.800;2024-01-30T11:50:52;100825.97;;;11.91;58.61
63552;BME280;49698;48.072;7.800;2024-01-30T11:53:20;100823.91;;;12.03;58.55
63552;BME280;49698;48.072;7.800;2024-01-30T11:55:49;100832.91;;;12.19;58.40
63552;BME280;49698;48.072;7.800;2024-01-30T11:58:17;100823.31;;;12.28;58.39
63552;BME280;49698;48.072;7.800;2024-01-30T12:00:53;100830.31;;;12.29;58.31
63552;BME280;49698;48.072;7.800;2024-01-30T12:03:22;100830.56;;;12.28;58.26
63552;BME280;49698;48.072;7.800;2024-01-30T12:05:54;100822.72;;;12.26;58.16
63552;BME280;49698;48.072;7.800;2024-01-30T12:08:22;100823.25;;;12.23;58.49
63552;BME280;49698;48.072;7.800;2024-01-30T12:10:55;100822.69;;;12.21;58.40
63552;BME280;49698;48.072;7.800;2024-01-30T12:13:23;100816.50;;;12.20;58.47
63552;BME280;49698;48.072;7.800;2024-01-30T12:15:51;100825.91;;;12.18;58.66
63552;BME280;49698;48.072;7.800;2024-01-30T12:18:20;100819.41;;;12.14;58.46
63552;BME280;49698;48.072;7.800;2024-01-30T12:20:56;100819.91;;;12.11;58.93
63552;BME280;49698;48.072;7.800;2024-01-30T12:23:24;100824.22;;;12.07;59.21
63552;BME280;49698;48.072;7.800;2024-01-30T12:25:52;100820.16;;;12.04;59.52
63552;BME280;49698;48.072;7.800;2024-01-30T12:28:20;100819.31;;;12.04;59.69
63552;BME280;49698;48.072;7.800;2024-01-30T12:30:54;100824.72;;;12.04;60.15
63552;BME280;49698;48.072;7.800;2024-01-30T12:33:24;100819.03;;;12.00;59.99
63552;BME280;49698;48.072;7.800;2024-01-30T12:35:53;100824.16;;;11.96;60.29
63552;BME280;49698;48.072;7.800;2024-01-30T12:38:21;100826.78;;;11.91;60.41
63552;BME280;49698;48.072;7.800;2024-01-30T12:40:52;100818.66;;;11.86;60.53
63552;BME280;49698;48.072;7.800;2024-01-30T12:43:21;100815.38;;;11.84;60.77
63552;BME280;49698;48.072;7.800;2024-01-30T12:45:49;100807.53;;;11.83;60.74
63552;BME280;49698;48.072;7.800;2024-01-30T12:48:17;100814.81;;;11.82;60.87
63552;BME280;49698;48.072;7.800;2024-01-30T12:50:47;100816.69;;;11.82;61.16
63552;BME280;49698;48.072;7.800;2024-01-30T12:53:15;100810.50;;;11.81;61.18
63552;BME280;49698;48.072;7.800;2024-01-30T12:55:42;100821.28;;;11.81;61.22
63552;BME280;49698;48.072;7.800;2024-01-30T12:58:11;100810.50;;;11.81;61.10